sensor_id;sensor_type;location;lat;lon;timestamp;P1;durP1;ratioP1;P2;durP2;ratioP2
33357;SDS011;19717;42.614;23.418;2022-10-01T00:00:53;11.00;;;6.88;;
33357;SDS011;19717;42.614;23.418;2022-10-01T00:03:20;10.63;;;7.43;;
33357;SDS011;19717;42.614;23.418;2022-10-01T00:05:53;12.07;;;7.25;;
33357;SDS011;19717;42.614;23.418;2022-10-01T00:08:23;9.05;;;7.07;;
33357;SDS011;19717;42.614;23.418;2022-10-01T00:10:49;12.85;;;7.38;;
33357;SDS011;19717;42.614;23.418;2022-10-01T00:13:15;9.75;;;6.70;;
33357;SDS011;19717;42.614;23.418;2022-10-01T00:15:41;9.70;;;6.82;;
33357;SDS011;19717;42.614;23.418;2022-10-01T00:18:07;10.82;;;7.28;;
33357;SDS011;19717;42.614;23.418;2022-10-01T00:20:34;11.80;;;7.38;;
33357;SDS011;19717;42.614;23.418;2022-10-01T00:23:00;11.88;;;7.72;;
33357;SDS011;19717;42.614;23.418;2022-10-01T00:25:26;11.55;;;7.80;;
33357;SDS011;19717;42.614;23.418;2022-10-01T00:27:52;11.73;;;6.88;;
33357;SDS011;19717;42.614;23.418;2022-10-01T00:30:19;10.07;;;7.70;;
33357;SDS011;19717;42.614;23.418;2022-10-01T00:32:45;14.25;;;7.97;;
33357;SDS011;19717;42.614;23.418;2022-10-01T00:35:11;8.45;;;6.78;;
33357;SDS011;19717;42.614;23.418;2022-10-01T00:37:38;19.63;;;7.82;;
33357;SDS011;19717;42.614;23.418;2022-10-01T00:40:05;10.13;;;7.47;;
33357;SDS011;19717;42.614;23.418;2022-10-01T00:42:31;14.25;;;8.10;;
33357;SDS011;19717;42.614;23.418;2022-10-01T00:44:58;10.82;;;7.55;;
33357;SDS011;19717;42.614;23.418;2022-10-01T00:47:27;13.18;;;7.30;;
33357;SDS011;19717;42.614;23.418;2022-10-01T00:50:00;14.70;;;7.95;;
33357;SDS011;19717;42.614;23.418;2022-10-01T00:54:55;14.23;;;8.50;;
33357;SDS011;19717;42.614;23.418;2022-10-01T00:57:22;13.18;;;7.88;;
33357;SDS011;19717;42.614;23.418;2022-10-01T00:59:49;11.80;;;7.72;;
33357;SDS011;19717;42.614;23.418;2022-10-01T01:02:16;11.98;;;8.18;;
33357;SDS011;19717;42.614;23.418;2022-10-01T01:04:42;10.88;;;7.80;;
33357;SDS011;19717;42.614;23.418;2022-10-01T01:07:08;15.18;;;8.20;;
33357;SDS011;19717;42.614;23.418;2022-10-01T01:09:36;13.13;;;7.90;;
33357;SDS011;19717;42.614;23.418;2022-10-01T01:17:03;12.32;;;7.80;;
33357;SDS011;19717;42.614;23.418;2022-10-01T01:22:28;10.57;;;7.65;;
33357;SDS011;19717;42.614;23.418;2022-10-01T01:25:01;16.73;;;8.43;;
33357;SDS011;19717;42.614;23.418;2022-10-01T01:32:29;13.20;;;7.78;;
33357;SDS011;19717;42.614;23.418;2022-10-01T01:34:58;13.90;;;7.75;;
33357;SDS011;19717;42.614;23.418;2022-10-01T01:37:25;9.00;;;7.53;;
33357;SDS011;19717;42.614;23.418;2022-10-01T01:39:54;15.73;;;7.78;;
33357;SDS011;19717;42.614;23.418;2022-10-01T01:42:23;10.40;;;7.82;;
33357;SDS011;19717;42.614;23.418;2022-10-01T01:44:51;11.27;;;7.95;;
33357;SDS011;19717;42.614;23.418;2022-10-01T01:47:22;12.43;;;8.55;;
33357;SDS011;19717;42.614;23.418;2022-10-01T01:49:56;11.82;;;7.78;;
33357;SDS011;19717;42.614;23.418;2022-10-01T01:52:23;11.73;;;8.27;;
33357;SDS011;19717;42.614;23.418;2022-10-01T01:54:49;11.65;;;7.40;;
33357;SDS011;19717;42.614;23.418;2022-10-01T01:57:16;9.05;;;7.97;;
33357;SDS011;19717;42.614;23.418;2022-10-01T01:59:43;14.57;;;8.35;;
33357;SDS011;19717;42.614;23.418;2022-10-01T02:02:12;14.57;;;8.52;;
33357;SDS011;19717;42.614;23.418;2022-10-01T02:04:50;12.85;;;7.53;;
33357;SDS011;19717;42.614;23.418;2022-10-01T02:10:08;9.75;;;7.13;;
33357;SDS011;19717;42.614;23.418;2022-10-01T02:15:26;9.93;;;7.88;;
33357;SDS011;19717;42.614;23.418;2022-10-01T02:17:56;13.00;;;7.88;;
33357;SDS011;19717;42.614;23.418;2022-10-01T02:20:28;12.85;;;7.60;;
33357;SDS011;19717;42.614;23.418;2022-10-01T02:22:58;11.63;;;7.95;;
33357;SDS011;19717;42.614;23.418;2022-10-01T02:25:27;14.70;;;8.40;;
33357;SDS011;19717;42.614;23.418;2022-10-01T02:27:56;11.20;;;8.00;;
33357;SDS011;19717;42.614;23.418;2022-10-01T02:30:25;17.92;;;9.25;;
33357;SDS011;19717;42.614;23.418;2022-10-01T02:32:52;16.35;;;8.85;;
33357;SDS011;19717;42.614;23.418;2022-10-01T02:35:19;11.55;;;8.48;;
33357;SDS011;19717;42.614;23.418;2022-10-01T02:37:46;10.73;;;8.23;;
33357;SDS011;19717;42.614;23.418;2022-10-01T02:40:15;12.60;;;8.45;;
33357;SDS011;19717;42.614;23.418;2022-10-01T02:42:47;14.07;;;9.30;;
33357;SDS011;19717;42.614;23.418;2022-10-01T02:45:15;10.55;;;8.07;;
33357;SDS011;19717;42.614;23.418;2022-10-01T02:47:44;18.10;;;8.63;;
33357;SDS011;19717;42.614;23.418;2022-10-01T02:50:12;15.07;;;8.50;;
33357;SDS011;19717;42.614;23.418;2022-10-01T02:52:47;12.27;;;8.75;;
33357;SDS011;19717;42.614;23.418;2022-10-01T02:55:19;14.15;;;8.77;;
33357;SDS011;19717;42.614;23.418;2022-10-01T02:57:46;11.88;;;8.60;;
33357;SDS011;19717;42.614;23.418;2022-10-01T03:00:13;12.73;;;8.88;;
33357;SDS011;19717;42.614;23.418;2022-10-01T03:02:40;13.52;;;9.48;;
33357;SDS011;19717;42.614;23.418;2022-10-01T03:05:06;16.77;;;9.13;;
33357;SDS011;19717;42.614;23.418;2022-10-01T03:07:33;13.70;;;9.50;;
33357;SDS011;19717;42.614;23.418;2022-10-01T03:10:00;13.75;;;9.23;;
33357;SDS011;19717;42.614;23.418;2022-10-01T03:12:26;12.10;;;9.07;;
33357;SDS011;19717;42.614;23.418;2022-10-01T03:14:52;12.07;;;9.05;;
33357;SDS011;19717;42.614;23.418;2022-10-01T03:17:18;16.15;;;9.68;;
33357;SDS011;19717;42.614;23.418;2022-10-01T03:19:44;15.45;;;9.90;;
33357;SDS011;19717;42.614;23.418;2022-10-01T03:22:11;15.93;;;9.82;;
33357;SDS011;19717;42.614;23.418;2022-10-01T03:24:37;16.20;;;9.65;;
33357;SDS011;19717;42.614;23.418;2022-10-01T03:27:04;15.82;;;9.45;;
33357;SDS011;19717;42.614;23.418;2022-10-01T03:29:30;16.35;;;9.98;;
33357;SDS011;19717;42.614;23.418;2022-10-01T03:31:56;14.55;;;10.55;;
33357;SDS011;19717;42.614;23.418;2022-10-01T03:34:22;18.10;;;10.60;;
33357;SDS011;19717;42.614;23.418;2022-10-01T03:36:48;18.10;;;10.25;;
33357;SDS011;19717;42.614;23.418;2022-10-01T03:39:16;12.18;;;9.55;;
33357;SDS011;19717;42.614;23.418;2022-10-01T03:41:42;14.32;;;9.35;;
33357;SDS011;19717;42.614;23.418;2022-10-01T03:44:08;16.63;;;9.63;;
33357;SDS011;19717;42.614;23.418;2022-10-01T03:46:35;14.10;;;9.63;;
33357;SDS011;19717;42.614;23.418;2022-10-01T03:49:01;10.93;;;8.50;;
33357;SDS011;19717;42.614;23.418;2022-10-01T03:51:27;16.10;;;8.77;;
33357;SDS011;19717;42.614;23.418;2022-10-01T03:53:54;15.10;;;8.90;;
33357;SDS011;19717;42.614;23.418;2022-10-01T03:56:20;17.88;;;9.15;;
33357;SDS011;19717;42.614;23.418;2022-10-01T03:58:47;15.30;;;8.52;;
33357;SDS011;19717;42.614;23.418;2022-10-01T04:01:13;15.95;;;9.23;;
33357;SDS011;19717;42.614;23.418;2022-10-01T04:03:39;14.23;;;9.98;;
33357;SDS011;19717;42.614;23.418;2022-10-01T04:06:07;18.25;;;9.95;;
33357;SDS011;19717;42.614;23.418;2022-10-01T04:08:33;18.80;;;10.68;;
33357;SDS011;19717;42.614;23.418;2022-10-01T04:10:59;14.77;;;10.35;;
33357;SDS011;19717;42.614;23.418;2022-10-01T04:13:25;15.88;;;10.55;;
33357;SDS011;19717;42.614;23.418;2022-10-01T04:15:51;17.45;;;10.27;;
33357;SDS011;19717;42.614;23.418;2022-10-01T04:18:17;89.15;;;55.45;;
33357;SDS011;19717;42.614;23.418;2022-10-01T04:20:45;123.70;;;83.35;;
33357;SDS011;19717;42.614;23.418;2022-10-01T04:23:12;118.15;;;72.97;;
33357;SDS011;19717;42.614;23.418;2022-10-01T04:25:38;24.42;;;16.05;;
33357;SDS011;19717;42.614;23.418;2022-10-01T04:28:05;29.27;;;18.95;;
33357;SDS011;19717;42.614;23.418;2022-10-01T04:30:32;26.30;;;18.55;;
33357;SDS011;19717;42.614;23.418;2022-10-01T04:32:58;24.10;;;16.38;;
33357;SDS011;19717;42.614;23.418;2022-10-01T04:35:25;25.30;;;15.63;;
33357;SDS011;19717;42.614;23.418;2022-10-01T04:37:55;23.17;;;15.68;;
33357;SDS011;19717;42.614;23.418;2022-10-01T04:40:22;31.05;;;17.50;;
33357;SDS011;19717;42.614;23.418;2022-10-01T04:42:48;28.27;;;14.00;;
33357;SDS011;19717;42.614;23.418;2022-10-01T04:45:14;23.83;;;12.88;;
33357;SDS011;19717;42.614;23.418;2022-10-01T04:47:47;17.35;;;12.18;;
33357;SDS011;19717;42.614;23.418;2022-10-01T04:50:14;20.58;;;12.77;;
33357;SDS011;19717;42.614;23.418;2022-10-01T04:52:40;33.35;;;18.83;;
33357;SDS011;19717;42.614;23.418;2022-10-01T04:55:07;26.30;;;16.58;;
33357;SDS011;19717;42.614;23.418;2022-10-01T04:57:33;20.13;;;13.90;;
33357;SDS011;19717;42.614;23.418;2022-10-01T04:59:59;20.55;;;12.90;;
33357;SDS011;19717;42.614;23.418;2022-10-01T05:02:26;19.48;;;11.30;;
33357;SDS011;19717;42.614;23.418;2022-10-01T05:04:53;20.48;;;11.77;;
33357;SDS011;19717;42.614;23.418;2022-10-01T05:07:20;20.25;;;10.93;;
33357;SDS011;19717;42.614;23.418;2022-10-01T05:09:47;17.23;;;11.13;;
33357;SDS011;19717;42.614;23.418;2022-10-01T05:12:13;16.63;;;10.82;;
33357;SDS011;19717;42.614;23.418;2022-10-01T05:14:39;19.83;;;11.88;;
33357;SDS011;19717;42.614;23.418;2022-10-01T05:17:05;24.08;;;12.85;;
33357;SDS011;19717;42.614;23.418;2022-10-01T05:19:32;22.52;;;12.77;;
33357;SDS011;19717;42.614;23.418;2022-10-01T05:21:58;23.17;;;11.70;;
33357;SDS011;19717;42.614;23.418;2022-10-01T05:24:24;22.25;;;12.02;;
33357;SDS011;19717;42.614;23.418;2022-10-01T05:26:50;22.75;;;12.05;;
33357;SDS011;19717;42.614;23.418;2022-10-01T05:29:28;23.77;;;11.05;;
33357;SDS011;19717;42.614;23.418;2022-10-01T05:31:54;16.67;;;10.80;;
33357;SDS011;19717;42.614;23.418;2022-10-01T05:34:20;16.58;;;11.02;;
33357;SDS011;19717;42.614;23.418;2022-10-01T05:36:46;20.48;;;11.23;;
33357;SDS011;19717;42.614;23.418;2022-10-01T05:39:12;25.30;;;11.63;;
33357;SDS011;19717;42.614;23.418;2022-10-01T05:41:39;24.30;;;12.20;;
33357;SDS011;19717;42.614;23.418;2022-10-01T05:44:05;17.88;;;11.18;;
33357;SDS011;19717;42.614;23.418;2022-10-01T05:46:32;23.25;;;11.35;;
33357;SDS011;19717;42.614;23.418;2022-10-01T05:48:58;19.73;;;11.25;;
33357;SDS011;19717;42.614;23.418;2022-10-01T05:51:24;17.30;;;10.35;;
33357;SDS011;19717;42.614;23.418;2022-10-01T05:53:53;17.63;;;9.98;;
33357;SDS011;19717;42.614;23.418;2022-10-01T05:56:19;15.15;;;9.38;;
33357;SDS011;19717;42.614;23.418;2022-10-01T05:58:45;16.05;;;8.75;;
33357;SDS011;19717;42.614;23.418;2022-10-01T06:01:12;14.68;;;8.80;;
33357;SDS011;19717;42.614;23.418;2022-10-01T06:03:38;19.95;;;8.93;;
33357;SDS011;19717;42.614;23.418;2022-10-01T06:06:04;18.83;;;9.25;;
33357;SDS011;19717;42.614;23.418;2022-10-01T06:08:32;25.95;;;9.65;;
33357;SDS011;19717;42.614;23.418;2022-10-01T06:10:59;14.48;;;7.88;;
33357;SDS011;19717;42.614;23.418;2022-10-01T06:13:25;20.70;;;9.90;;
33357;SDS011;19717;42.614;23.418;2022-10-01T06:15:52;24.48;;;11.10;;
33357;SDS011;19717;42.614;23.418;2022-10-01T06:18:18;19.05;;;8.55;;
33357;SDS011;19717;42.614;23.418;2022-10-01T06:20:44;23.58;;;9.15;;
33357;SDS011;19717;42.614;23.418;2022-10-01T06:23:11;18.88;;;8.27;;
33357;SDS011;19717;42.614;23.418;2022-10-01T06:25:41;14.52;;;8.60;;
33357;SDS011;19717;42.614;23.418;2022-10-01T06:28:08;11.95;;;8.20;;
33357;SDS011;19717;42.614;23.418;2022-10-01T06:30:35;14.73;;;7.55;;
33357;SDS011;19717;42.614;23.418;2022-10-01T06:33:03;18.92;;;9.80;;
33357;SDS011;19717;42.614;23.418;2022-10-01T06:35:30;15.98;;;10.02;;
33357;SDS011;19717;42.614;23.418;2022-10-01T06:37:57;18.25;;;10.02;;
33357;SDS011;19717;42.614;23.418;2022-10-01T06:40:23;25.13;;;11.30;;
33357;SDS011;19717;42.614;23.418;2022-10-01T06:42:49;20.33;;;10.75;;
33357;SDS011;19717;42.614;23.418;2022-10-01T06:45:16;20.20;;;10.70;;
33357;SDS011;19717;42.614;23.418;2022-10-01T06:47:51;19.88;;;11.15;;
33357;SDS011;19717;42.614;23.418;2022-10-01T06:50:18;31.15;;;13.25;;
33357;SDS011;19717;42.614;23.418;2022-10-01T06:52:44;25.13;;;11.48;;
33357;SDS011;19717;42.614;23.418;2022-10-01T06:55:17;21.20;;;11.40;;
33357;SDS011;19717;42.614;23.418;2022-10-01T06:57:43;20.15;;;11.75;;
33357;SDS011;19717;42.614;23.418;2022-10-01T07:00:10;18.35;;;10.93;;
33357;SDS011;19717;42.614;23.418;2022-10-01T07:02:36;17.73;;;10.85;;
33357;SDS011;19717;42.614;23.418;2022-10-01T07:05:03;21.65;;;10.48;;
33357;SDS011;19717;42.614;23.418;2022-10-01T07:07:30;18.23;;;9.80;;
33357;SDS011;19717;42.614;23.418;2022-10-01T07:09:58;16.80;;;9.70;;
33357;SDS011;19717;42.614;23.418;2022-10-01T07:12:24;14.00;;;9.27;;
33357;SDS011;19717;42.614;23.418;2022-10-01T07:14:50;16.55;;;10.40;;
33357;SDS011;19717;42.614;23.418;2022-10-01T07:17:16;15.20;;;10.48;;
33357;SDS011;19717;42.614;23.418;2022-10-01T07:19:42;15.55;;;9.10;;
33357;SDS011;19717;42.614;23.418;2022-10-01T07:22:08;16.42;;;9.93;;
33357;SDS011;19717;42.614;23.418;2022-10-01T07:24:34;15.80;;;9.02;;
33357;SDS011;19717;42.614;23.418;2022-10-01T07:27:01;17.05;;;8.90;;
33357;SDS011;19717;42.614;23.418;2022-10-01T07:29:27;14.13;;;8.50;;
33357;SDS011;19717;42.614;23.418;2022-10-01T07:31:57;14.23;;;8.25;;
33357;SDS011;19717;42.614;23.418;2022-10-01T07:34:24;15.32;;;9.27;;
33357;SDS011;19717;42.614;23.418;2022-10-01T07:36:50;13.93;;;8.95;;
33357;SDS011;19717;42.614;23.418;2022-10-01T07:39:19;15.63;;;8.73;;
33357;SDS011;19717;42.614;23.418;2022-10-01T07:41:45;14.98;;;8.52;;
33357;SDS011;19717;42.614;23.418;2022-10-01T07:44:11;13.23;;;8.27;;
33357;SDS011;19717;42.614;23.418;2022-10-01T07:46:38;16.60;;;8.75;;
33357;SDS011;19717;42.614;23.418;2022-10-01T07:49:04;15.18;;;8.10;;
33357;SDS011;19717;42.614;23.418;2022-10-01T07:51:31;16.42;;;8.20;;
33357;SDS011;19717;42.614;23.418;2022-10-01T07:53:57;15.65;;;8.77;;
33357;SDS011;19717;42.614;23.418;2022-10-01T07:56:23;18.30;;;8.65;;
33357;SDS011;19717;42.614;23.418;2022-10-01T07:58:57;15.48;;;7.55;;
33357;SDS011;19717;42.614;23.418;2022-10-01T08:01:23;13.93;;;7.43;;
33357;SDS011;19717;42.614;23.418;2022-10-01T08:03:50;15.13;;;7.13;;
33357;SDS011;19717;42.614;23.418;2022-10-01T08:06:16;13.98;;;7.50;;
33357;SDS011;19717;42.614;23.418;2022-10-01T08:08:43;15.02;;;7.25;;
33357;SDS011;19717;42.614;23.418;2022-10-01T08:11:10;13.93;;;7.47;;
33357;SDS011;19717;42.614;23.418;2022-10-01T08:13:38;11.40;;;6.40;;
33357;SDS011;19717;42.614;23.418;2022-10-01T08:16:05;14.00;;;7.88;;
33357;SDS011;19717;42.614;23.418;2022-10-01T08:18:33;20.70;;;7.90;;
33357;SDS011;19717;42.614;23.418;2022-10-01T08:20:59;13.68;;;7.07;;
33357;SDS011;19717;42.614;23.418;2022-10-01T08:23:29;11.15;;;7.03;;
33357;SDS011;19717;42.614;23.418;2022-10-01T08:25:59;16.40;;;6.55;;
33357;SDS011;19717;42.614;23.418;2022-10-01T08:28:25;19.50;;;7.57;;
33357;SDS011;19717;42.614;23.418;2022-10-01T08:30:51;17.60;;;8.52;;
33357;SDS011;19717;42.614;23.418;2022-10-01T08:33:18;18.23;;;8.18;;
33357;SDS011;19717;42.614;23.418;2022-10-01T08:35:44;17.60;;;7.90;;
33357;SDS011;19717;42.614;23.418;2022-10-01T08:38:10;20.20;;;8.13;;
33357;SDS011;19717;42.614;23.418;2022-10-01T08:40:41;20.15;;;8.68;;
33357;SDS011;19717;42.614;23.418;2022-10-01T08:43:22;18.33;;;8.02;;
33357;SDS011;19717;42.614;23.418;2022-10-01T08:45:50;31.65;;;14.55;;
33357;SDS011;19717;42.614;23.418;2022-10-01T08:54:07;17.60;;;9.30;;
33357;SDS011;19717;42.614;23.418;2022-10-01T08:56:36;13.82;;;8.45;;
33357;SDS011;19717;42.614;23.418;2022-10-01T09:01:48;20.73;;;8.88;;
33357;SDS011;19717;42.614;23.418;2022-10-01T09:04:15;17.58;;;9.25;;
33357;SDS011;19717;42.614;23.418;2022-10-01T09:06:41;21.55;;;8.70;;
33357;SDS011;19717;42.614;23.418;2022-10-01T09:15:33;13.77;;;8.50;;
33357;SDS011;19717;42.614;23.418;2022-10-01T09:25:33;23.17;;;11.93;;
33357;SDS011;19717;42.614;23.418;2022-10-01T09:28:22;20.08;;;10.00;;
33357;SDS011;19717;42.614;23.418;2022-10-01T09:30:55;21.67;;;10.63;;
33357;SDS011;19717;42.614;23.418;2022-10-01T09:33:22;20.13;;;10.32;;
33357;SDS011;19717;42.614;23.418;2022-10-01T09:35:55;18.67;;;9.20;;
33357;SDS011;19717;42.614;23.418;2022-10-01T09:38:41;19.17;;;9.27;;
33357;SDS011;19717;42.614;23.418;2022-10-01T09:41:08;11.50;;;8.30;;
33357;SDS011;19717;42.614;23.418;2022-10-01T09:43:38;20.45;;;8.93;;
33357;SDS011;19717;42.614;23.418;2022-10-01T09:46:06;20.80;;;9.27;;
33357;SDS011;19717;42.614;23.418;2022-10-01T09:48:41;17.95;;;9.60;;
33357;SDS011;19717;42.614;23.418;2022-10-01T09:51:15;16.92;;;9.15;;
33357;SDS011;19717;42.614;23.418;2022-10-01T09:56:10;19.25;;;7.82;;
33357;SDS011;19717;42.614;23.418;2022-10-01T09:58:38;16.35;;;8.00;;
33357;SDS011;19717;42.614;23.418;2022-10-01T10:01:10;6.82;;;2.30;;
33357;SDS011;19717;42.614;23.418;2022-10-01T10:03:38;5.47;;;2.08;;
33357;SDS011;19717;42.614;23.418;2022-10-01T10:06:04;5.03;;;2.10;;
33357;SDS011;19717;42.614;23.418;2022-10-01T10:08:34;5.18;;;2.60;;
33357;SDS011;19717;42.614;23.418;2022-10-01T10:11:04;2.78;;;1.90;;
33357;SDS011;19717;42.614;23.418;2022-10-01T10:13:32;4.28;;;2.30;;
33357;SDS011;19717;42.614;23.418;2022-10-01T10:18:30;4.95;;;2.22;;
33357;SDS011;19717;42.614;23.418;2022-10-01T10:21:03;5.40;;;2.10;;
33357;SDS011;19717;42.614;23.418;2022-10-01T10:23:33;6.93;;;2.10;;
33357;SDS011;19717;42.614;23.418;2022-10-01T10:26:01;5.43;;;2.70;;
33357;SDS011;19717;42.614;23.418;2022-10-01T10:28:48;4.65;;;2.83;;
33357;SDS011;19717;42.614;23.418;2022-10-01T10:31:15;3.53;;;2.13;;
33357;SDS011;19717;42.614;23.418;2022-10-01T10:33:52;4.82;;;2.25;;
33357;SDS011;19717;42.614;23.418;2022-10-01T10:36:19;4.65;;;2.97;;
33357;SDS011;19717;42.614;23.418;2022-10-01T10:38:48;8.70;;;4.80;;
33357;SDS011;19717;42.614;23.418;2022-10-01T10:41:17;12.10;;;4.88;;
33357;SDS011;19717;42.614;23.418;2022-10-01T10:43:49;13.35;;;4.82;;
33357;SDS011;19717;42.614;23.418;2022-10-01T10:46:20;9.75;;;5.00;;
33357;SDS011;19717;42.614;23.418;2022-10-01T10:48:46;13.55;;;5.72;;
33357;SDS011;19717;42.614;23.418;2022-10-01T10:51:22;11.68;;;6.00;;
33357;SDS011;19717;42.614;23.418;2022-10-01T10:53:51;16.95;;;6.53;;
33357;SDS011;19717;42.614;23.418;2022-10-01T10:56:22;16.30;;;9.73;;
33357;SDS011;19717;42.614;23.418;2022-10-01T10:58:51;14.93;;;10.13;;
33357;SDS011;19717;42.614;23.418;2022-10-01T11:01:24;12.90;;;9.13;;
33357;SDS011;19717;42.614;23.418;2022-10-01T11:03:55;9.05;;;8.05;;
33357;SDS011;19717;42.614;23.418;2022-10-01T11:06:22;11.33;;;8.53;;
33357;SDS011;19717;42.614;23.418;2022-10-01T11:08:56;15.05;;;8.45;;
33357;SDS011;19717;42.614;23.418;2022-10-01T11:26:29;9.52;;;8.00;;
33357;SDS011;19717;42.614;23.418;2022-10-01T11:29:09;29.23;;;17.55;;
33357;SDS011;19717;42.614;23.418;2022-10-01T11:39:30;17.85;;;10.38;;
33357;SDS011;19717;42.614;23.418;2022-10-01T11:44:34;14.63;;;9.43;;
33357;SDS011;19717;42.614;23.418;2022-10-01T11:47:15;14.43;;;9.60;;
33357;SDS011;19717;42.614;23.418;2022-10-01T11:52:37;13.50;;;7.30;;
33357;SDS011;19717;42.614;23.418;2022-10-01T11:58:45;11.35;;;6.50;;
33357;SDS011;19717;42.614;23.418;2022-10-01T12:01:12;9.57;;;6.22;;
33357;SDS011;19717;42.614;23.418;2022-10-01T12:07:05;11.82;;;5.78;;
33357;SDS011;19717;42.614;23.418;2022-10-01T12:09:06;9.85;;;6.75;;
33357;SDS011;19717;42.614;23.418;2022-10-01T12:11:42;8.45;;;4.65;;
33357;SDS011;19717;42.614;23.418;2022-10-01T12:14:15;12.60;;;8.43;;
33357;SDS011;19717;42.614;23.418;2022-10-01T12:16:55;8.55;;;4.85;;
33357;SDS011;19717;42.614;23.418;2022-10-01T12:19:30;8.90;;;5.50;;
33357;SDS011;19717;42.614;23.418;2022-10-01T12:24:26;7.05;;;4.20;;
33357;SDS011;19717;42.614;23.418;2022-10-01T12:29:22;6.03;;;4.13;;
33357;SDS011;19717;42.614;23.418;2022-10-01T12:31:57;12.43;;;6.75;;
33357;SDS011;19717;42.614;23.418;2022-10-01T12:47:07;85.47;;;42.67;;
33357;SDS011;19717;42.614;23.418;2022-10-01T13:05:11;22.38;;;9.02;;
33357;SDS011;19717;42.614;23.418;2022-10-01T13:07:49;16.77;;;6.95;;
33357;SDS011;19717;42.614;23.418;2022-10-01T13:13:05;14.82;;;6.68;;
33357;SDS011;19717;42.614;23.418;2022-10-01T13:15:36;11.90;;;6.47;;
33357;SDS011;19717;42.614;23.418;2022-10-01T13:20:40;8.88;;;5.70;;
33357;SDS011;19717;42.614;23.418;2022-10-01T13:33:21;29.90;;;19.05;;
33357;SDS011;19717;42.614;23.418;2022-10-01T13:36:07;18.98;;;11.23;;
33357;SDS011;19717;42.614;23.418;2022-10-01T13:41:15;19.92;;;13.32;;
33357;SDS011;19717;42.614;23.418;2022-10-01T13:43:50;13.77;;;9.23;;
33357;SDS011;19717;42.614;23.418;2022-10-01T13:46:22;9.05;;;5.03;;
33357;SDS011;19717;42.614;23.418;2022-10-01T13:48:50;8.20;;;4.70;;
33357;SDS011;19717;42.614;23.418;2022-10-01T13:51:16;12.88;;;5.32;;
33357;SDS011;19717;42.614;23.418;2022-10-01T13:56:12;8.32;;;4.75;;
33357;SDS011;19717;42.614;23.418;2022-10-01T13:58:40;8.77;;;5.13;;
33357;SDS011;19717;42.614;23.418;2022-10-01T14:01:25;9.35;;;5.43;;
33357;SDS011;19717;42.614;23.418;2022-10-01T14:06:29;10.27;;;4.85;;
33357;SDS011;19717;42.614;23.418;2022-10-01T14:09:03;10.18;;;5.13;;
33357;SDS011;19717;42.614;23.418;2022-10-01T14:11:31;9.07;;;5.10;;
33357;SDS011;19717;42.614;23.418;2022-10-01T14:17:21;12.68;;;5.97;;
33357;SDS011;19717;42.614;23.418;2022-10-01T14:19:49;8.38;;;4.43;;
33357;SDS011;19717;42.614;23.418;2022-10-01T14:27:19;10.18;;;4.20;;
33357;SDS011;19717;42.614;23.418;2022-10-01T14:37:20;5.78;;;3.42;;
33357;SDS011;19717;42.614;23.418;2022-10-01T14:39:58;10.10;;;4.22;;
33357;SDS011;19717;42.614;23.418;2022-10-01T14:42:25;6.13;;;3.53;;
33357;SDS011;19717;42.614;23.418;2022-10-01T14:44:51;6.70;;;3.47;;
33357;SDS011;19717;42.614;23.418;2022-10-01T14:47:18;7.30;;;3.65;;
33357;SDS011;19717;42.614;23.418;2022-10-01T14:49:44;8.40;;;3.67;;
33357;SDS011;19717;42.614;23.418;2022-10-01T14:54:47;6.88;;;3.30;;
33357;SDS011;19717;42.614;23.418;2022-10-01T14:57:23;12.15;;;3.50;;
33357;SDS011;19717;42.614;23.418;2022-10-01T14:59:51;10.20;;;3.92;;
33357;SDS011;19717;42.614;23.418;2022-10-01T15:02:21;7.53;;;4.07;;
33357;SDS011;19717;42.614;23.418;2022-10-01T15:04:52;8.57;;;4.10;;
33357;SDS011;19717;42.614;23.418;2022-10-01T15:07:19;10.20;;;4.50;;
33357;SDS011;19717;42.614;23.418;2022-10-01T15:09:46;9.77;;;3.55;;
33357;SDS011;19717;42.614;23.418;2022-10-01T15:12:13;11.05;;;4.05;;
33357;SDS011;19717;42.614;23.418;2022-10-01T15:14:39;9.40;;;4.35;;
33357;SDS011;19717;42.614;23.418;2022-10-01T15:17:09;12.68;;;4.30;;
33357;SDS011;19717;42.614;23.418;2022-10-01T15:19:42;11.27;;;4.25;;
33357;SDS011;19717;42.614;23.418;2022-10-01T15:22:09;11.75;;;4.70;;
33357;SDS011;19717;42.614;23.418;2022-10-01T15:24:39;11.88;;;4.45;;
33357;SDS011;19717;42.614;23.418;2022-10-01T15:27:09;13.13;;;4.53;;
33357;SDS011;19717;42.614;23.418;2022-10-01T15:29:37;8.52;;;4.90;;
33357;SDS011;19717;42.614;23.418;2022-10-01T15:32:04;16.90;;;4.78;;
33357;SDS011;19717;42.614;23.418;2022-10-01T15:34:30;10.98;;;5.15;;
33357;SDS011;19717;42.614;23.418;2022-10-01T15:36:56;8.82;;;4.45;;
33357;SDS011;19717;42.614;23.418;2022-10-01T15:41:55;13.32;;;4.60;;
33357;SDS011;19717;42.614;23.418;2022-10-01T15:45:06;11.13;;;4.97;;
33357;SDS011;19717;42.614;23.418;2022-10-01T15:47:33;17.58;;;5.00;;
33357;SDS011;19717;42.614;23.418;2022-10-01T15:57:47;11.00;;;5.15;;
33357;SDS011;19717;42.614;23.418;2022-10-01T16:00:24;9.43;;;4.65;;
33357;SDS011;19717;42.614;23.418;2022-10-01T16:02:51;12.60;;;4.70;;
33357;SDS011;19717;42.614;23.418;2022-10-01T16:05:19;17.60;;;5.68;;
33357;SDS011;19717;42.614;23.418;2022-10-01T16:07:46;12.35;;;5.10;;
33357;SDS011;19717;42.614;23.418;2022-10-01T16:12:51;11.02;;;4.85;;
33357;SDS011;19717;42.614;23.418;2022-10-01T16:15:28;9.20;;;5.00;;
33357;SDS011;19717;42.614;23.418;2022-10-01T16:17:58;11.82;;;5.13;;
33357;SDS011;19717;42.614;23.418;2022-10-01T16:25:43;13.02;;;5.55;;
33357;SDS011;19717;42.614;23.418;2022-10-01T16:28:20;11.38;;;5.90;;
33357;SDS011;19717;42.614;23.418;2022-10-01T16:30:48;11.50;;;5.70;;
33357;SDS011;19717;42.614;23.418;2022-10-01T16:33:15;11.63;;;5.20;;
33357;SDS011;19717;42.614;23.418;2022-10-01T16:35:41;11.00;;;6.03;;
33357;SDS011;19717;42.614;23.418;2022-10-01T16:38:09;11.65;;;6.43;;
33357;SDS011;19717;42.614;23.418;2022-10-01T16:40:38;11.80;;;6.32;;
33357;SDS011;19717;42.614;23.418;2022-10-01T16:43:04;16.92;;;6.70;;
33357;SDS011;19717;42.614;23.418;2022-10-01T16:45:37;13.77;;;6.80;;
33357;SDS011;19717;42.614;23.418;2022-10-01T16:48:11;22.38;;;11.00;;
33357;SDS011;19717;42.614;23.418;2022-10-01T16:50:38;38.40;;;19.25;;
33357;SDS011;19717;42.614;23.418;2022-10-01T16:53:08;35.90;;;19.48;;
33357;SDS011;19717;42.614;23.418;2022-10-01T16:55:34;36.80;;;18.23;;
33357;SDS011;19717;42.614;23.418;2022-10-01T16:58:02;23.90;;;12.15;;
33357;SDS011;19717;42.614;23.418;2022-10-01T17:00:28;23.92;;;11.20;;
33357;SDS011;19717;42.614;23.418;2022-10-01T17:02:54;24.52;;;14.55;;
33357;SDS011;19717;42.614;23.418;2022-10-01T17:05:30;22.52;;;11.82;;
33357;SDS011;19717;42.614;23.418;2022-10-01T17:07:57;20.55;;;12.85;;
33357;SDS011;19717;42.614;23.418;2022-10-01T17:10:25;15.18;;;7.63;;
33357;SDS011;19717;42.614;23.418;2022-10-01T17:12:51;20.55;;;9.18;;
33357;SDS011;19717;42.614;23.418;2022-10-01T17:15:20;13.63;;;7.32;;
33357;SDS011;19717;42.614;23.418;2022-10-01T17:17:51;18.15;;;8.95;;
33357;SDS011;19717;42.614;23.418;2022-10-01T17:20:17;20.13;;;9.32;;
33357;SDS011;19717;42.614;23.418;2022-10-01T17:22:44;13.13;;;7.05;;
33357;SDS011;19717;42.614;23.418;2022-10-01T17:25:14;19.77;;;7.93;;